Time;durP1;ratioP1;P1;durP2;ratioP2;P2;SDS_P1;SDS_P2;PMS_P1;PMS_P2;Temp;Humidity;BMP_temperature;BMP_pressure;BME280_temperature;BME280_humidity;BME280_pressure;Samples;Min_cycle;Max_cycle;Signal;HPM_P1;HPM_P2
2022/05/02 00:00:46;;;;;;;41.22;25.27;;;;;;;28.05;82.44;97381.28;4829694;29;20125;-67
2022/05/02 00:03:29;;;;;;;37.75;24.13;;;;;;;28.03;83.82;97384.13;4820691;29;20054;-67
2022/05/02 00:06:18;;;;;;;42.38;24.20;;;;;;;28.05;83.98;97381.28;4836549;29;20050;-67
2022/05/02 00:08:59;;;;;;;56.25;23.83;;;;;;;27.96;82.20;97383.22;4821799;29;20144;-67
2022/05/02 00:11:48;;;;;;;41.67;24.40;;;;;;;27.82;81.92;97380.63;4833523;29;20050;-66
2022/05/02 00:14:37;;;;;;;39.72;24.48;;;;;;;27.84;82.20;97394.50;4831866;29;20091;-67
2022/05/02 00:17:56;;;;;;;54.20;25.15;;;;;;;27.77;82.71;97392.59;4833164;29;20062;-66
2022/05/02 00:20:30;;;;;;;47.63;24.27;;;;;;;27.83;82.76;97393.69;4834959;29;20054;-66
2022/05/02 00:23:19;;;;;;;42.13;24.95;;;;;;;27.89;82.86;97392.09;4841806;29;20058;-66
2022/05/02 00:26:14;;;;;;;55.33;24.73;;;;;;;27.87;82.61;97391.47;4783755;29;20059;-66
2022/05/02 00:28:50;;;;;;;43.88;23.45;;;;;;;27.85;85.63;97396.97;4799504;29;20055;-66
2022/05/02 00:31:47;;;;;;;47.28;23.83;;;;;;;27.78;84.81;97396.88;4804811;29;20096;-67
2022/05/02 00:34:22;;;;;;;37.22;23.35;;;;;;;27.76;87.97;97401.56;4819909;29;20054;-67
2022/05/02 00:37:14;;;;;;;46.88;23.85;;;;;;;27.79;84.33;97408.28;4815830;29;20127;-67
2022/05/02 00:39:56;;;;;;;47.28;24.60;;;;;;;27.78;84.44;97409.28;4816770;29;20070;-66
2022/05/02 00:42:47;;;;;;;51.70;24.80;;;;;;;27.79;85.84;97419.69;4816542;29;20046;-67
2022/05/02 00:45:29;;;;;;;43.28;23.42;;;;;;;27.83;84.70;97419.34;4814536;29;20054;-68
2022/05/02 00:48:20;;;;;;;51.33;24.63;;;;;;;27.82;86.05;97418.50;4813844;29;20645;-67
2022/05/02 00:51:02;;;;;;;41.67;23.10;;;;;;;27.82;85.93;97415.88;4804512;29;20066;-66
2022/05/02 00:53:53;;;;;;;36.22;23.40;;;;;;;27.85;85.26;97419.97;4820208;29;20449;-66
2022/05/02 00:56:35;;;;;;;45.67;23.42;;;;;;;27.80;84.88;97436.41;4816359;29;20150;-67
2022/05/02 00:59:26;;;;;;;40.20;23.23;;;;;;;27.92;86.07;97428.81;4816042;29;20145;-67
2022/05/02 01:02:10;;;;;;;48.50;23.48;;;;;;;27.91;85.87;97424.53;4816039;29;20076;-66
2022/05/02 01:04:58;;;;;;;44.75;23.20;;;;;;;27.97;86.32;97418.47;4818875;29;20115;-67
2022/05/02 01:07:47;;;;;;;48.63;23.33;;;;;;;27.96;84.48;97424.78;4806511;29;20058;-66
2022/05/02 01:10:39;;;;;;;45.85;23.65;;;;;;;27.95;83.70;97428.41;4818084;29;20126;-67
2022/05/02 01:13:39;;;;;;;40.00;22.65;;;;;;;27.96;86.46;97433.53;4816997;29;20059;-66
2022/05/02 01:16:29;;;;;;;54.38;23.42;;;;;;;27.91;84.25;97448.34;4813286;29;26658;-67
2022/05/02 01:19:17;;;;;;;48.53;24.80;;;;;;;27.98;84.67;97443.94;4815166;29;20154;-68
2022/05/02 01:22:07;;;;;;;53.53;24.55;;;;;;;27.90;87.00;97444.88;4832799;29;20054;-67
2022/05/02 01:25:02;;;;;;;48.10;23.45;;;;;;;27.94;85.42;97443.50;4839132;29;20057;-67
2022/05/02 01:27:57;;;;;;;40.28;24.58;;;;;;;27.92;86.47;97461.41;4837472;29;20071;-66
2022/05/02 01:30:53;;;;;;;47.35;24.63;;;;;;;27.91;86.62;97462.41;4835606;29;20122;-67
2022/05/02 01:33:49;;;;;;;45.70;23.98;;;;;;;27.93;85.76;97465.69;4835080;29;20046;-67
2022/05/02 01:36:37;;;;;;;47.40;24.15;;;;;;;28.00;84.76;97471.06;4833445;29;20062;-66
2022/05/02 01:39:19;;;;;;;51.08;25.23;;;;;;;28.09;84.22;97473.44;4839528;29;20061;-67
2022/05/02 01:42:17;;;;;;;49.15;24.95;;;;;;;28.12;85.65;97474.88;4852294;29;20081;-67
2022/05/02 01:44:53;;;;;;;40.60;23.42;;;;;;;28.25;86.09;97472.44;4842756;29;20054;-66
2022/05/02 01:47:42;;;;;;;49.08;25.35;;;;;;;28.24;84.65;97476.06;4834160;29;20065;-68
2022/05/02 01:50:24;;;;;;;36.50;21.98;;;;;;;28.28;86.51;97476.50;4834208;29;20127;-68
2022/05/02 01:53:13;;;;;;;50.45;24.35;;;;;;;28.50;94.64;97479.00;4839152;29;20493;-67
2022/05/02 01:55:56;;;;;;;43.00;23.48;;;;;;;28.45;92.01;97483.22;4853088;29;20057;-67
2022/05/02 01:58:50;;;;;;;43.90;26.35;;;;;;;28.18;95.49;97480.28;4852319;29;20054;-67
2022/05/02 02:01:26;;;;;;;56.55;24.90;;;;;;;28.24;86.53;97484.03;4850164;29;20057;-67
2022/05/02 02:07:15;;;;;;;41.50;24.42;;;;;;;28.62;88.78;97475.84;4833135;29;20131;-68
2022/05/02 02:10:11;;;;;;;46.30;24.35;;;;;;;28.51;85.87;97479.81;4833657;29;20050;-68
2022/05/02 02:12:47;;;;;;;49.72;23.48;;;;;;;28.72;83.26;97484.31;4833257;29;20064;-68
2022/05/02 02:15:36;;;;;;;52.22;23.58;;;;;;;29.01;83.78;97483.38;4833456;29;20070;-68
2022/05/02 02:18:19;;;;;;;46.45;23.05;;;;;;;29.02;82.89;97485.84;4833666;29;20763;-68
2022/05/02 02:21:10;;;;;;;43.55;22.67;;;;;;;29.18;83.33;97482.91;4836376;29;20492;-67
2022/05/02 02:24:02;;;;;;;45.38;23.67;;;;;;;29.43;80.95;97488.63;4836939;29;20447;-68
2022/05/02 02:26:47;;;;;;;48.75;22.83;;;;;;;29.92;77.33;97488.50;4835154;29;20049;-67
2022/05/02 02:29:36;;;;;;;39.25;23.40;;;;;;;30.26;76.77;97489.44;4834548;29;20485;-68
2022/05/02 02:32:24;;;;;;;54.90;22.10;;;;;;;29.84;78.68;97488.66;4837588;29;20078;-68
2022/05/02 02:35:13;;;;;;;47.95;22.67;;;;;;;30.23;75.90;97489.88;4834696;29;20050;-68
2022/05/02 02:37:55;;;;;;;55.83;23.90;;;;;;;30.63;74.82;97485.50;4836076;29;20718;-68
2022/05/02 02:40:44;;;;;;;39.70;21.00;;;;;;;30.74;76.02;97490.22;4835239;29;20054;-68
2022/05/02 02:43:33;;;;;;;51.50;21.67;;;;;;;30.32;71.89;97500.13;4836615;29;20490;-68
2022/05/02 02:46:16;;;;;;;53.13;21.73;;;;;;;30.30;72.46;97493.38;4837049;29;20518;-68
2022/05/02 02:49:04;;;;;;;42.40;22.95;;;;;;;30.88;71.46;97493.72;4834939;29;20483;-68
2022/05/02 02:52:00;;;;;;;36.33;22.33;;;;;;;30.99;69.11;97501.91;4835253;29;20065;-68
2022/05/02 02:54:36;;;;;;;49.35;21.80;;;;;;;31.05;69.39;97510.94;4842391;29;20054;-68
2022/05/02 02:57:36;;;;;;;42.35;20.52;;;;;;;30.90;68.23;97504.97;4836349;29;20057;-68
2022/05/02 03:00:25;;;;;;;47.75;23.25;;;;;;;31.20;68.93;97508.09;4836158;29;20053;-68
2022/05/02 03:03:07;;;;;;;49.92;21.17;;;;;;;31.67;67.17;97515.03;4847785;29;20041;-68
2022/05/02 03:06:03;;;;;;;39.10;20.35;;;;;;;31.47;68.86;97509.69;4836550;29;20490;-68
2022/05/02 03:08:51;;;;;;;40.60;21.08;;;;;;;31.53;66.58;97528.31;4836487;29;20598;-67
2022/05/02 03:11:33;;;;;;;35.35;20.17;;;;;;;31.24;67.29;97519.97;4835895;29;20070;-67
2022/05/02 03:14:22;;;;;;;51.85;21.02;;;;;;;31.85;66.35;97517.84;4835858;29;20070;-68
2022/05/02 03:17:11;;;;;;;46.55;20.85;;;;;;;32.11;66.17;97516.94;4835518;29;20142;-67
2022/05/02 03:19:54;;;;;;;42.45;20.08;;;;;;;32.03;63.63;97517.19;4836033;29;20054;-69
2022/05/02 03:22:43;;;;;;;45.38;21.15;;;;;;;31.89;64.00;97519.06;4839221;29;20058;-68
2022/05/02 03:25:32;;;;;;;43.13;19.17;;;;;;;32.29;64.36;97519.78;4835759;29;20066;-67
2022/05/02 03:28:21;;;;;;;49.75;21.20;;;;;;;32.09;63.87;97519.81;4832279;29;20130;-67
2022/05/02 03:31:04;;;;;;;40.33;20.73;;;;;;;32.17;63.69;97522.28;4825749;29;20166;-68
2022/05/02 03:33:59;;;;;;;48.45;20.20;;;;;;;32.06;62.46;97514.91;4822556;29;20110;-67
2022/05/02 03:36:48;;;;;;;52.13;19.70;;;;;;;32.22;61.77;97527.81;4826126;29;20075;-68
2022/05/02 03:39:39;;;;;;;43.60;20.55;;;;;;;32.44;60.69;97517.66;4833336;29;20054;-68
2022/05/02 03:42:21;;;;;;;51.45;20.50;;;;;;;32.30;60.58;97519.56;4829665;29;20424;-67
2022/05/02 03:45:10;;;;;;;39.72;19.80;;;;;;;33.02;61.36;97515.69;4835179;29;20054;-68
2022/05/02 03:47:52;;;;;;;49.47;20.55;;;;;;;32.83;59.99;97521.97;4835461;29;20490;-69
2022/05/02 03:50:41;;;;;;;40.97;19.83;;;;;;;33.02;60.03;97529.03;4835009;29;20054;-68
2022/05/02 03:53:23;;;;;;;39.40;18.95;;;;;;;33.32;57.66;97531.06;4837448;29;20050;-68
2022/05/02 03:56:13;;;;;;;40.83;19.50;;;;;;;33.25;58.02;97546.34;4853442;29;20458;-68
2022/05/02 03:58:54;;;;;;;37.38;18.25;;;;;;;33.43;56.67;97546.41;4847458;29;20162;-68
2022/05/02 04:01:45;;;;;;;41.63;18.25;;;;;;;33.62;56.07;97552.56;4833291;29;20054;-67
2022/05/02 04:04:27;;;;;;;52.80;19.08;;;;;;;33.26;54.57;97564.00;4832187;29;20072;-69
2022/05/02 04:07:16;;;;;;;49.50;18.45;;;;;;;33.70;53.99;97561.13;4833770;29;20626;-68
2022/05/02 04:10:06;;;;;;;35.40;19.77;;;;;;;33.98;58.20;97570.56;4835482;29;20118;-68
2022/05/02 04:12:48;;;;;;;46.15;18.35;;;;;;;33.97;53.25;97576.94;4834820;29;20084;-68
2022/05/02 04:15:37;;;;;;;45.63;19.73;;;;;;;34.05;53.22;97576.66;4835091;29;20080;-67
2022/05/02 04:18:27;;;;;;;46.15;20.85;;;;;;;34.02;51.93;97582.44;4828525;29;20121;-68
2022/05/02 04:21:15;;;;;;;47.85;19.10;;;;;;;34.37;51.87;97582.69;4834213;29;20161;-68
2022/05/02 04:24:09;;;;;;;47.10;20.60;;;;;;;34.53;53.40;97577.56;4834164;29;20066;-69
2022/05/02 04:26:51;;;;;;;36.85;20.80;;;;;;;34.54;52.85;97573.84;4834864;29;20073;-69
2022/05/02 04:29:42;;;;;;;47.00;21.35;;;;;;;34.58;52.61;97573.38;4814085;29;20074;-68
2022/05/02 04:32:24;;;;;;;45.50;22.13;;;;;;;34.62;51.31;97563.84;4834105;29;20050;-68
2022/05/02 04:35:20;;;;;;;35.92;20.60;;;;;;;34.60;50.16;97561.41;4834114;29;20736;-67
2022/05/02 04:38:00;;;;;;;40.35;21.17;;;;;;;34.70;54.15;97555.50;4833907;29;20057;-68
2022/05/02 04:40:48;;;;;;;36.53;22.10;;;;;;;35.01;52.11;97574.03;4830530;29;20081;-68
2022/05/02 04:43:31;;;;;;;37.00;21.92;;;;;;;34.82;51.20;97575.13;4832528;29;20053;-67
2022/05/02 04:46:28;;;;;;;38.45;21.02;;;;;;;34.92;48.98;97586.13;4831129;29;20061;-67
2022/05/02 04:49:03;;;;;;;43.00;21.08;;;;;;;35.42;51.79;97591.16;4832492;29;20104;-67
2022/05/02 04:51:52;;;;;;;41.83;21.02;;;;;;;35.40;51.62;97582.53;4832855;29;20073;-67
2022/05/02 04:54:34;;;;;;;41.33;19.10;;;;;;;35.36;49.86;97590.19;4833823;29;20046;-66
2022/05/02 04:57:24;;;;;;;38.20;18.73;;;;;;;35.12;49.92;97589.31;4836158;29;20554;-66
2022/05/02 05:00:06;;;;;;;48.03;20.65;;;;;;;35.57;51.50;97578.94;4817711;29;20042;-67
2022/05/02 05:02:56;;;;;;;49.30;20.83;;;;;;;35.32;49.68;97572.16;4831993;29;20062;-69
2022/05/02 05:05:44;;;;;;;50.45;20.90;;;;;;;35.30;49.61;97567.00;4833091;29;20158;-67
2022/05/02 05:08:36;;;;;;;40.88;19.65;;;;;;;35.62;52.79;97559.47;4831940;29;20500;-68
2022/05/02 05:11:39;;;;;;;45.00;19.15;;;;;;;35.80;52.15;97564.75;4836134;29;20054;-69
2022/05/02 05:18:20;;;;;;;45.35;19.15;;;;;;;35.99;49.46;97560.06;4823428;29;20057;-68
2022/05/02 05:21:20;;;;;;;43.15;17.63;;;;;;;36.35;47.16;97575.06;4832261;29;20046;-67
2022/05/02 05:24:37;;;;;;;31.00;15.48;;;;;;;36.35;45.55;97573.19;4832068;29;20132;-66
2022/05/02 05:27:59;;;;;;;30.27;15.20;;;;;;;36.53;43.08;97566.84;4817990;29;20058;-67
2022/05/02 05:30:51;;;;;;;42.10;16.80;;;;;;;36.54;42.42;97562.31;4834689;29;20077;-67
2022/05/02 05:33:36;;;;;;;47.15;17.85;;;;;;;36.57;42.38;97557.25;4834861;29;20078;-67
2022/05/02 05:36:38;;;;;;;40.88;15.98;;;;;;;36.90;42.66;97556.56;4836766;29;20511;-66
2022/05/02 05:39:49;;;;;;;34.63;16.88;;;;;;;36.80;45.07;97551.00;4837456;29;20415;-67
2022/05/02 05:42:56;;;;;;;47.88;17.38;;;;;;;37.00;43.27;97540.63;4850275;29;20474;-67
2022/05/02 05:45:58;;;;;;;40.53;19.88;;;;;;;36.23;41.81;97545.59;4825312;29;20053;-68
2022/05/02 05:49:13;;;;;;;45.97;19.60;;;;;;;36.77;44.76;97540.75;4830570;29;20542;-67
2022/05/02 05:52:07;;;;;;;36.35;18.95;;;;;;;36.80;43.25;97538.38;4791519;29;20490;-67
2022/05/02 05:55:12;;;;;;;38.25;20.00;;;;;;;37.19;41.68;97532.38;4838076;29;20094;-66
2022/05/02 05:58:17;;;;;;;42.38;18.60;;;;;;;37.00;43.70;97527.19;4837777;29;20117;-66
2022/05/02 06:01:18;;;;;;;36.58;17.60;;;;;;;36.75;41.17;97529.44;4831908;29;20371;-65
2022/05/02 06:04:11;;;;;;;49.33;18.55;;;;;;;37.15;41.06;97529.34;4838107;29;20205;-66
2022/05/02 06:07:01;;;;;;;38.55;18.08;;;;;;;36.71;40.37;97522.94;4838265;29;20075;-66
2022/05/02 06:09:52;;;;;;;44.90;16.77;;;;;;;36.81;39.62;97520.41;4838100;29;20145;-66
2022/05/02 06:12:34;;;;;;;;;;;;;;;37.10;39.12;97518.50;4806960;29;20050;-68
2022/05/02 06:18:34;;;;;;;33.22;15.63;;;;;;;37.13;44.52;97513.47;4835814;29;20130;-66
2022/05/02 06:21:27;;;;;;;38.15;16.15;;;;;;;37.06;38.51;97506.59;4837380;29;20138;-68
2022/05/02 06:24:17;;;;;;;34.58;16.42;;;;;;;37.29;41.09;97511.00;4833843;29;20056;-68
2022/05/02 06:27:07;;;;;;;44.58;18.85;;;;;;;37.40;42.07;97497.50;4835374;29;20061;-67
2022/05/02 06:29:51;;;;;;;36.15;17.83;;;;;;;37.28;39.32;97502.13;4815578;29;20090;-67
2022/05/02 06:32:43;;;;;;;41.78;18.75;;;;;;;37.27;41.34;97502.41;4831714;29;20055;-67
2022/05/02 06:35:34;;;;;;;48.25;20.25;;;;;;;37.19;39.80;97500.13;4816431;29;20069;-67
2022/05/02 06:39:07;;;;;;;41.72;19.95;;;;;;;37.17;38.88;97497.69;4822211;29;20061;-66
2022/05/02 06:42:27;;;;;;;43.45;18.75;;;;;;;37.24;37.41;97487.56;4835651;29;20049;-67
2022/05/02 06:45:28;;;;;;;47.72;20.90;;;;;;;37.50;39.24;97489.59;4835681;29;20050;-67
2022/05/02 06:48:23;;;;;;;43.65;20.75;;;;;;;37.48;38.71;97488.19;4835207;29;20064;-68
2022/05/02 06:51:17;;;;;;;39.83;16.23;;;;;;;37.37;35.72;97476.47;4832946;29;20045;-67
2022/05/02 06:55:04;;;;;;;42.08;17.00;;;;;;;37.44;36.74;97474.44;4835863;29;20074;-67
2022/05/02 06:57:56;;;;;;;34.42;16.17;;;;;;;37.61;38.36;97470.94;4814304;29;20054;-67
2022/05/02 07:00:52;;;;;;;39.58;16.10;;;;;;;37.38;38.99;97472.72;4792820;29;20130;-67
2022/05/02 07:04:18;;;;;;;36.50;15.77;;;;;;;37.40;37.23;97464.44;4833542;29;20127;-66
2022/05/02 07:07:21;;;;;;;37.75;16.13;;;;;;;37.35;35.90;97454.44;4832607;29;20049;-68
2022/05/02 07:10:25;;;;;;;37.15;18.27;;;;;;;37.55;44.89;97457.38;4833491;29;20046;-67
2022/05/02 07:13:44;;;;;;;56.15;21.92;;;;;;;37.64;39.85;97447.06;4815750;29;20065;-68
2022/05/02 07:16:38;;;;;;;50.25;22.30;;;;;;;37.41;36.92;97437.31;4832472;29;20050;-69
2022/05/02 07:19:30;;;;;;;56.47;20.58;;;;;;;37.42;37.61;97438.94;4834600;29;20061;-68
2022/05/02 07:22:29;;;;;;;43.15;18.48;;;;;;;37.59;38.64;97433.56;4832849;29;20061;-69
2022/05/02 07:25:13;;;;;;;35.63;19.20;;;;;;;37.66;37.96;97430.69;4830407;29;20062;-72
2022/05/02 07:28:26;;;;;;;40.50;19.67;;;;;;;37.56;35.90;97434.00;4832552;29;20141;-70
2022/05/02 07:31:22;;;;;;;31.35;18.00;;;;;;;37.61;35.85;97427.91;4831131;29;20190;-71
2022/05/02 07:34:08;;;;;;;43.92;18.35;;;;;;;37.54;34.98;97425.38;4832857;29;20049;-70
2022/05/02 07:37:01;;;;;;;29.95;17.98;;;;;;;37.68;36.89;97421.28;4830832;29;20121;-71
2022/05/02 07:39:52;;;;;;;44.53;19.20;;;;;;;37.62;34.67;97416.91;4831243;29;20137;-70
2022/05/02 07:42:58;;;;;;;40.67;18.75;;;;;;;37.60;35.96;97396.72;4824151;29;20107;-70
2022/05/02 07:45:48;;;;;;;42.92;20.15;;;;;;;37.67;38.03;97390.09;4798635;29;20054;-71
2022/05/02 07:48:46;;;;;;;50.55;21.30;;;;;;;37.68;37.82;97386.31;4798645;29;20049;-71
2022/05/02 07:51:30;;;;;;;47.65;21.08;;;;;;;37.75;38.60;97386.16;4803608;29;20073;-71
2022/05/02 07:54:26;;;;;;;36.03;20.98;;;;;;;37.74;38.63;97374.59;4816785;29;20054;-69
2022/05/02 07:57:24;;;;;;;52.78;20.25;;;;;;;37.66;37.39;97366.97;4815624;29;20205;-69
2022/05/02 08:00:02;;;;;;;46.38;22.40;;;;;;;37.50;35.30;97368.63;4816483;29;20054;-68
2022/05/02 08:02:51;;;;;;;41.00;20.80;;;;;;;37.69;38.35;97371.00;4835248;29;20046;-66
2022/05/02 08:05:34;;;;;;;41.42;20.25;;;;;;;37.67;35.76;97367.78;4834341;29;20056;-68
2022/05/02 08:08:36;;;;;;;42.47;19.58;;;;;;;37.71;35.32;97364.31;4831316;29;20049;-68
2022/05/02 08:11:33;;;;;;;51.22;18.90;;;;;;;37.60;34.71;97367.94;4837067;29;20089;-69
2022/05/02 08:14:32;;;;;;;49.00;19.63;;;;;;;37.67;36.44;97357.84;4837000;29;20054;-69
2022/05/02 08:17:50;;;;;;;40.92;21.17;;;;;;;37.63;37.03;97347.81;4835039;29;20065;-68
2022/05/02 08:21:03;;;;;;;40.03;20.83;;;;;;;37.58;35.66;97343.16;4834315;29;20058;-71
2022/05/02 08:27:31;;;;;;;36.67;20.67;;;;;;;37.59;36.96;97333.22;4817449;29;20054;-71
2022/05/02 08:30:31;;;;;;;40.22;21.60;;;;;;;37.52;35.35;97328.84;4831617;29;20154;-70
2022/05/02 08:33:26;;;;;;;55.65;23.25;;;;;;;37.48;35.38;97326.91;4833013;29;20058;-71
2022/05/02 08:36:46;;;;;;;49.72;23.10;;;;;;;37.50;36.80;97314.84;4834488;29;20192;-70
2022/05/02 08:39:39;;;;;;;46.35;22.48;;;;;;;37.57;37.53;97306.59;4834166;29;20081;-69
2022/05/02 08:42:31;;;;;;;45.95;21.98;;;;;;;37.54;35.85;97307.09;4832722;29;20134;-72
2022/05/02 08:45:59;;;;;;;50.75;22.05;;;;;;;37.57;38.16;97303.91;4830432;29;20126;-71
2022/05/02 08:49:38;;;;;;;44.53;22.45;;;;;;;37.43;37.19;97300.81;4831264;29;20050;-72
2022/05/02 08:53:04;;;;;;;49.47;22.05;;;;;;;37.42;39.49;97285.72;4831562;29;20555;-71
2022/05/02 08:56:02;;;;;;;46.63;22.88;;;;;;;37.39;39.57;97286.22;4832253;29;20053;-70
2022/05/02 08:59:04;;;;;;;44.22;24.42;;;;;;;37.21;39.60;97281.16;4816820;29;20131;-69
2022/05/02 09:02:31;;;;;;;32.67;22.70;;;;;;;37.07;43.00;97274.50;4820071;29;20053;-70
2022/05/02 09:05:38;;;;;;;38.42;22.55;;;;;;;37.06;38.89;97265.63;4805339;29;20485;-70
2022/05/02 09:08:31;;;;;;;44.08;22.90;;;;;;;37.22;37.11;97269.34;4835363;29;20053;-68
2022/05/02 09:11:34;;;;;;;44.20;21.45;;;;;;;37.16;38.73;97260.44;4832270;29;20068;-70
2022/05/02 09:14:27;;;;;;;37.30;22.27;;;;;;;37.21;37.67;97262.34;4833382;29;20149;-69
2022/05/02 09:17:29;;;;;;;45.65;22.02;;;;;;;37.22;37.75;97263.16;4835743;29;20057;-69
2022/05/02 09:20:45;;;;;;;48.03;20.90;;;;;;;37.29;37.93;97256.53;4835346;29;20049;-70
2022/05/02 09:24:09;;;;;;;39.03;22.33;;;;;;;37.15;39.98;97245.38;4834144;29;20052;-69
2022/05/02 09:27:21;;;;;;;37.10;21.90;;;;;;;37.14;39.04;97242.94;4832955;29;20127;-69
2022/05/02 09:30:18;;;;;;;45.03;22.77;;;;;;;37.15;36.75;97247.25;4836214;29;20049;-66
2022/05/02 09:33:08;;;;;;;52.25;22.55;;;;;;;37.32;36.67;97241.78;4835839;29;20474;-69
2022/05/02 09:35:59;;;;;;;40.03;21.00;;;;;;;37.21;38.40;97235.47;4835987;29;20070;-69
2022/05/02 09:38:58;;;;;;;44.60;22.33;;;;;;;37.14;38.71;97241.06;4834250;29;20065;-69
2022/05/02 09:41:51;;;;;;;50.72;22.92;;;;;;;37.11;37.54;97230.78;4837353;29;20054;-70
2022/05/02 09:51:58;;;;;;;51.05;21.20;;;;;;;37.15;37.22;97221.19;4837015;29;20435;-67
2022/05/02 09:58:09;;;;;;;49.22;21.38;;;;;;;37.02;38.56;97212.69;4837007;29;20053;-68
2022/05/02 10:01:21;;;;;;;41.72;21.00;;;;;;;36.98;40.38;97198.09;4839912;29;20141;-71
2022/05/02 10:04:32;;;;;;;52.90;24.63;;;;;;;36.88;38.79;97203.38;4834062;29;20054;-67
2022/05/02 10:07:19;;;;;;;47.35;23.58;;;;;;;37.02;38.63;97191.19;4835924;29;20144;-67
2022/05/02 10:10:39;;;;;;;46.17;22.15;;;;;;;37.01;41.48;97186.88;4834900;29;20123;-68
2022/05/02 10:13:39;;;;;;;50.60;21.97;;;;;;;36.98;37.62;97187.38;4834535;29;20170;-69
2022/05/02 10:17:07;;;;;;;47.80;22.98;;;;;;;36.88;39.61;97181.91;4834656;29;22508;-67
2022/05/02 10:20:24;;;;;;;52.58;24.02;;;;;;;37.11;38.56;97179.75;4723957;30;20067;-69
2022/05/02 10:23:26;;;;;;;46.85;23.52;;;;;;;36.94;39.61;97176.31;4834504;29;20160;-68
2022/05/02 10:26:25;;;;;;;48.63;23.73;;;;;;;36.71;40.97;97174.72;4835319;29;20057;-67
2022/05/02 10:29:44;;;;;;;37.33;23.23;;;;;;;36.52;43.11;97167.97;4834788;29;20321;-69
2022/05/02 10:33:10;;;;;;;53.53;25.35;;;;;;;36.43;41.14;97172.97;4835820;29;20151;-68
2022/05/02 10:36:00;;;;;;;33.80;23.20;;;;;;;36.49;41.45;97164.97;4800406;29;20057;-68
2022/05/02 10:39:05;;;;;;;55.88;27.77;;;;;;;36.88;38.94;97160.41;4835215;29;20127;-68
2022/05/02 10:41:59;;;;;;;45.85;24.70;;;;;;;36.83;39.28;97153.09;4819981;29;20134;-69
2022/05/02 10:45:11;;;;;;;52.25;26.00;;;;;;;37.06;38.89;97143.94;4836506;29;20053;-68
2022/05/02 10:48:16;;;;;;;51.28;25.30;;;;;;;36.94;37.55;97145.97;4832047;29;20093;-69
2022/05/02 10:51:37;;;;;;;48.45;25.42;;;;;;;36.94;38.43;97148.66;4829836;29;20110;-69
2022/05/02 10:55:01;;;;;;;49.00;27.42;;;;;;;36.53;42.61;97148.13;4834914;29;20065;-68
2022/05/02 10:57:53;;;;;;;45.95;25.65;;;;;;;36.52;41.41;97143.81;4820446;29;20133;-67
2022/05/02 11:00:36;;;;;;;51.28;24.67;;;;;;;36.97;37.76;97140.88;4835256;29;20065;-68
2022/05/02 11:03:35;;;;;;;47.80;24.85;;;;;;;37.07;38.46;97137.50;4834327;29;20065;-68
2022/05/02 11:06:53;;;;;;;51.00;25.92;;;;;;;36.93;41.90;97128.22;4834817;29;20042;-68
2022/05/02 11:10:03;;;;;;;57.75;28.40;;;;;;;36.62;41.35;97133.22;4808275;29;20137;-68
2022/05/02 11:13:16;;;;;;;50.15;27.27;;;;;;;36.62;40.43;97130.53;4814688;29;20051;-67
2022/05/02 11:16:27;;;;;;;50.53;28.33;;;;;;;36.39;42.21;97120.03;4804958;29;20118;-70
2022/05/02 11:22:47;;;;;;;58.65;28.00;;;;;;;36.26;42.69;97120.38;4828752;29;20053;-66
2022/05/02 11:26:32;;;;;;;50.20;27.17;;;;;;;36.15;40.34;97108.69;4838972;29;20054;-67
2022/05/02 11:30:02;;;;;;;54.92;28.90;;;;;;;36.08;42.02;97107.25;4801296;29;20508;-67
2022/05/02 11:33:02;;;;;;;53.67;27.10;;;;;;;35.98;43.05;97103.34;4834959;29;20049;-66
2022/05/02 11:35:46;;;;;;;49.25;27.20;;;;;;;35.96;44.02;97100.09;4834197;29;20046;-67
2022/05/02 11:39:06;;;;;;;73.20;29.65;;;;;;;35.86;43.59;97094.59;4835803;29;20078;-67
2022/05/02 11:41:45;;;;;;;57.47;28.58;;;;;;;35.86;43.04;97094.59;4817485;29;20058;-67
2022/05/02 11:45:02;;;;;;;46.25;28.77;;;;;;;35.91;42.06;97096.53;4833911;29;20145;-68
2022/05/02 11:48:14;;;;;;;57.80;29.38;;;;;;;35.75;43.05;97090.16;4831268;29;20419;-67
2022/05/02 11:51:07;;;;;;;59.70;29.95;;;;;;;35.74;43.42;97096.56;4833710;29;20058;-67
2022/05/02 11:53:55;;;;;;;48.50;28.17;;;;;;;35.68;44.32;97098.31;4832233;29;20062;-66
2022/05/02 11:57:10;;;;;;;50.25;29.40;;;;;;;35.53;44.52;97098.06;4830199;29;20122;-66
2022/05/02 12:00:17;;;;;;;60.65;29.38;;;;;;;35.50;44.16;97095.06;4818425;29;20538;-66
2022/05/02 12:03:12;;;;;;;51.63;30.38;;;;;;;35.66;44.67;97102.31;4496722;29;9999918;-66
2022/05/02 12:06:07;;;;;;;47.67;30.00;;;;;;;35.61;43.88;97100.34;4829403;29;20054;-66
2022/05/02 12:08:59;;;;;;;44.80;30.10;;;;;;;35.75;42.92;97100.88;4830615;29;20581;-67
2022/05/02 12:12:02;;;;;;;56.53;29.83;;;;;;;35.80;44.08;97100.94;4832784;29;20650;-67
2022/05/02 12:15:04;;;;;;;64.82;32.35;;;;;;;35.81;42.70;97099.06;4831448;29;20073;-66
2022/05/02 12:18:01;;;;;;;66.65;31.20;;;;;;;35.71;44.46;97097.03;4832264;29;20053;-67
2022/05/02 12:20:54;;;;;;;59.05;32.70;;;;;;;35.71;44.54;97094.34;4832835;29;20061;-67
2022/05/02 12:23:49;;;;;;;75.20;33.67;;;;;;;35.53;44.92;97099.94;4833132;29;20129;-68
2022/05/02 12:26:33;;;;;;;65.25;32.50;;;;;;;35.77;44.17;97090.69;4830746;29;20057;-68
2022/05/02 12:29:24;;;;;;;61.78;33.42;;;;;;;35.66;44.96;97105.78;4830983;29;20126;-69
2022/05/02 12:32:08;;;;;;;61.72;32.78;;;;;;;35.77;44.76;97100.59;4827634;29;20050;-68
2022/05/02 12:35:03;;;;;;;58.85;33.58;;;;;;;35.74;44.68;97101.09;4830347;29;20054;-67
2022/05/02 12:37:49;;;;;;;48.45;34.78;;;;;;;35.82;44.64;97104.19;4833065;29;20058;-69
2022/05/02 12:40:38;;;;;;;60.65;35.17;;;;;;;35.94;44.65;97104.09;4831773;29;20499;-68
2022/05/02 12:43:33;;;;;;;71.45;37.25;;;;;;;35.74;45.36;97107.28;4831322;29;20062;-67
2022/05/02 12:46:24;;;;;;;64.40;35.80;;;;;;;35.61;47.47;97102.19;4832359;29;20134;-73
2022/05/02 12:49:11;;;;;;;69.38;37.50;;;;;;;35.57;46.35;97114.47;4836649;29;20041;-68
2022/05/02 12:52:02;;;;;;;62.22;36.42;;;;;;;35.53;46.48;97110.66;4834234;29;20130;-67
2022/05/02 12:54:56;;;;;;;60.42;35.53;;;;;;;35.48;46.79;97113.25;4832950;29;20061;-65
2022/05/02 13:01:12;;;;;;;59.45;36.45;;;;;;;35.14;48.78;97107.81;4830528;29;20125;-68
2022/05/02 13:04:06;;;;;;;75.63;36.90;;;;;;;35.10;48.11;97116.59;4832211;29;20045;-68
2022/05/02 13:06:58;;;;;;;63.63;35.15;;;;;;;35.10;48.14;97116.59;4832466;29;20054;-66
2022/05/02 13:09:44;;;;;;;62.17;34.25;;;;;;;34.99;49.81;97120.94;4833423;29;20077;-68
2022/05/02 13:12:34;;;;;;;67.78;36.70;;;;;;;34.92;49.23;97122.94;4834632;29;20057;-68
2022/05/02 13:15:17;;;;;;;64.88;35.03;;;;;;;34.91;48.63;97124.81;4831118;29;20061;-67
2022/05/02 13:18:07;;;;;;;56.08;34.65;;;;;;;34.81;49.58;97131.81;4833130;29;20058;-69
2022/05/02 13:21:18;;;;;;;68.43;34.75;;;;;;;34.83;48.41;97132.41;4833496;29;20061;-69
2022/05/02 13:24:12;;;;;;;66.90;36.38;;;;;;;34.74;49.87;97139.97;4833928;29;20066;-65
2022/05/02 13:27:07;;;;;;;79.63;36.60;;;;;;;34.64;48.75;97137.09;4833140;29;20065;-68
2022/05/02 13:30:11;;;;;;;67.80;36.88;;;;;;;34.61;49.00;97144.78;4834060;29;20058;-66
2022/05/02 13:33:09;;;;;;;60.05;35.15;;;;;;;34.64;48.78;97142.44;4833628;29;20479;-68
2022/05/02 13:36:08;;;;;;;61.75;34.63;;;;;;;34.45;52.92;97141.78;4819537;29;20924;-66
2022/05/02 13:39:10;;;;;;;61.50;34.72;;;;;;;34.27;54.89;97147.25;4832798;29;20134;-66
2022/05/02 13:42:09;;;;;;;52.08;34.08;;;;;;;34.23;53.04;97151.47;4834199;29;20054;-68
2022/05/02 13:45:04;;;;;;;58.47;33.97;;;;;;;34.14;52.88;97150.16;4836761;29;20058;-67
2022/05/02 13:48:00;;;;;;;57.00;33.72;;;;;;;34.03;53.07;97159.78;4833907;29;20490;-67
2022/05/02 13:51:08;;;;;;;61.78;33.53;;;;;;;33.93;54.69;97150.72;4835112;29;20114;-67
2022/05/02 13:54:00;;;;;;;68.95;33.85;;;;;;;34.06;51.75;97163.88;4835853;29;20126;-67
2022/05/02 13:57:25;;;;;;;62.60;31.52;;;;;;;33.98;55.58;97166.88;4827465;29;20061;-69